sensor_id;sensor_type;location;lat;lon;timestamp;P1;durP1;ratioP1;P2;durP2;ratioP2
82182;SDS011;71763;52.220;13.000;2023-08-30T00:02:04;0.00;;;0.00;;
82182;SDS011;71763;52.220;13.000;2023-08-30T00:04:30;0.00;;;0.00;;
82182;SDS011;71763;52.220;13.000;2023-08-30T00:06:55;0.00;;;0.00;;
82182;SDS011;71763;52.220;13.000;2023-08-30T00:09:21;0.00;;;0.00;;
82182;SDS011;71763;52.220;13.000;2023-08-30T00:11:46;0.00;;;0.00;;
82182;SDS011;71763;52.220;13.000;2023-08-30T00:14:12;0.00;;;0.00;;
82182;SDS011;71763;52.220;13.000;2023-08-30T00:16:37;0.00;;;0.00;;
82182;SDS011;71763;52.220;13.000;2023-08-30T00:19:03;0.00;;;0.00;;
82182;SDS011;71763;52.220;13.000;2023-08-30T00:21:29;0.00;;;0.00;;
82182;SDS011;71763;52.220;13.000;2023-08-30T00:23:55;0.00;;;0.00;;
82182;SDS011;71763;52.220;13.000;2023-08-30T00:26:20;0.00;;;0.00;;
82182;SDS011;71763;52.220;13.000;2023-08-30T00:28:46;0.00;;;0.00;;
82182;SDS011;71763;52.220;13.000;2023-08-30T00:31:11;0.00;;;0.00;;
82182;SDS011;71763;52.220;13.000;2023-08-30T00:33:37;0.00;;;0.00;;
82182;SDS011;71763;52.220;13.000;2023-08-30T00:36:04;0.00;;;0.00;;
82182;SDS011;71763;52.220;13.000;2023-08-30T00:38:30;0.00;;;0.00;;
82182;SDS011;71763;52.220;13.000;2023-08-30T00:40:58;0.00;;;0.00;;
82182;SDS011;71763;52.220;13.000;2023-08-30T00:43:24;0.00;;;0.00;;
82182;SDS011;71763;52.220;13.000;2023-08-30T00:45:49;0.00;;;0.00;;
82182;SDS011;71763;52.220;13.000;2023-08-30T00:48:15;0.00;;;0.00;;
82182;SDS011;71763;52.220;13.000;2023-08-30T00:50:43;0.00;;;0.00;;
82182;SDS011;71763;52.220;13.000;2023-08-30T00:53:09;0.00;;;0.00;;
82182;SDS011;71763;52.220;13.000;2023-08-30T00:55:35;0.00;;;0.00;;
82182;SDS011;71763;52.220;13.000;2023-08-30T00:58:02;0.00;;;0.00;;
82182;SDS011;71763;52.220;13.000;2023-08-30T01:00:31;0.00;;;0.00;;
82182;SDS011;71763;52.220;13.000;2023-08-30T01:02:58;0.00;;;0.00;;
82182;SDS011;71763;52.220;13.000;2023-08-30T01:05:24;0.00;;;0.00;;
82182;SDS011;71763;52.220;13.000;2023-08-30T01:07:50;0.00;;;0.00;;
82182;SDS011;71763;52.220;13.000;2023-08-30T01:10:16;0.00;;;0.00;;
82182;SDS011;71763;52.220;13.000;2023-08-30T01:12:45;0.00;;;0.00;;
82182;SDS011;71763;52.220;13.000;2023-08-30T01:15:20;0.00;;;0.00;;
82182;SDS011;71763;52.220;13.000;2023-08-30T01:17:47;0.00;;;0.00;;
82182;SDS011;71763;52.220;13.000;2023-08-30T01:20:14;0.00;;;0.00;;
82182;SDS011;71763;52.220;13.000;2023-08-30T01:22:53;0.00;;;0.00;;
82182;SDS011;71763;52.220;13.000;2023-08-30T01:25:27;0.00;;;0.00;;
82182;SDS011;71763;52.220;13.000;2023-08-30T01:28:35;0.00;;;0.00;;
82182;SDS011;71763;52.220;13.000;2023-08-30T01:31:02;0.00;;;0.00;;
82182;SDS011;71763;52.220;13.000;2023-08-30T01:33:29;0.00;;;0.00;;
82182;SDS011;71763;52.220;13.000;2023-08-30T01:35:57;0.00;;;0.00;;
82182;SDS011;71763;52.220;13.000;2023-08-30T01:38:25;0.00;;;0.00;;
82182;SDS011;71763;52.220;13.000;2023-08-30T01:40:52;0.00;;;0.00;;
82182;SDS011;71763;52.220;13.000;2023-08-30T01:43:19;0.00;;;0.00;;
82182;SDS011;71763;52.220;13.000;2023-08-30T01:45:46;0.00;;;0.00;;
82182;SDS011;71763;52.220;13.000;2023-08-30T01:48:16;0.00;;;0.00;;
82182;SDS011;71763;52.220;13.000;2023-08-30T01:50:43;0.00;;;0.00;;
82182;SDS011;71763;52.220;13.000;2023-08-30T01:53:10;0.00;;;0.00;;
82182;SDS011;71763;52.220;13.000;2023-08-30T01:55:37;0.00;;;0.00;;
82182;SDS011;71763;52.220;13.000;2023-08-30T01:58:03;0.00;;;0.00;;
82182;SDS011;71763;52.220;13.000;2023-08-30T02:00:29;0.00;;;0.00;;
82182;SDS011;71763;52.220;13.000;2023-08-30T02:02:55;0.00;;;0.00;;
82182;SDS011;71763;52.220;13.000;2023-08-30T02:05:21;0.00;;;0.00;;
82182;SDS011;71763;52.220;13.000;2023-08-30T02:10:34;0.00;;;0.00;;
82182;SDS011;71763;52.220;13.000;2023-08-30T02:13:01;0.00;;;0.00;;
82182;SDS011;71763;52.220;13.000;2023-08-30T02:15:29;0.10;;;0.00;;
82182;SDS011;71763;52.220;13.000;2023-08-30T02:17:57;0.00;;;0.00;;
82182;SDS011;71763;52.220;13.000;2023-08-30T02:20:23;0.00;;;0.00;;
82182;SDS011;71763;52.220;13.000;2023-08-30T02:22:49;0.00;;;0.00;;
82182;SDS011;71763;52.220;13.000;2023-08-30T02:25:15;0.00;;;0.00;;
82182;SDS011;71763;52.220;13.000;2023-08-30T02:27:40;0.00;;;0.00;;
82182;SDS011;71763;52.220;13.000;2023-08-30T02:30:06;0.00;;;0.00;;
82182;SDS011;71763;52.220;13.000;2023-08-30T02:32:32;0.00;;;0.00;;
82182;SDS011;71763;52.220;13.000;2023-08-30T02:34:57;0.00;;;0.00;;
82182;SDS011;71763;52.220;13.000;2023-08-30T02:37:23;0.00;;;0.00;;
82182;SDS011;71763;52.220;13.000;2023-08-30T02:39:49;0.05;;;0.05;;
82182;SDS011;71763;52.220;13.000;2023-08-30T02:42:14;0.00;;;0.00;;
82182;SDS011;71763;52.220;13.000;2023-08-30T02:44:40;0.00;;;0.00;;
82182;SDS011;71763;52.220;13.000;2023-08-30T02:47:05;0.00;;;0.00;;
82182;SDS011;71763;52.220;13.000;2023-08-30T02:49:31;0.00;;;0.00;;
82182;SDS011;71763;52.220;13.000;2023-08-30T02:51:56;0.00;;;0.00;;
82182;SDS011;71763;52.220;13.000;2023-08-30T02:54:22;0.00;;;0.00;;
82182;SDS011;71763;52.220;13.000;2023-08-30T02:56:47;0.00;;;0.00;;
82182;SDS011;71763;52.220;13.000;2023-08-30T02:59:14;0.00;;;0.00;;
82182;SDS011;71763;52.220;13.000;2023-08-30T03:01:39;0.00;;;0.00;;
82182;SDS011;71763;52.220;13.000;2023-08-30T03:04:05;0.00;;;0.00;;
82182;SDS011;71763;52.220;13.000;2023-08-30T03:06:34;0.00;;;0.00;;
82182;SDS011;71763;52.220;13.000;2023-08-30T03:09:00;0.00;;;0.00;;
82182;SDS011;71763;52.220;13.000;2023-08-30T03:11:27;0.00;;;0.00;;
82182;SDS011;71763;52.220;13.000;2023-08-30T03:13:53;0.00;;;0.00;;
82182;SDS011;71763;52.220;13.000;2023-08-30T03:16:19;0.00;;;0.00;;
82182;SDS011;71763;52.220;13.000;2023-08-30T03:18:44;0.00;;;0.00;;
82182;SDS011;71763;52.220;13.000;2023-08-30T03:21:11;0.00;;;0.00;;
82182;SDS011;71763;52.220;13.000;2023-08-30T03:23:36;0.00;;;0.00;;
82182;SDS011;71763;52.220;13.000;2023-08-30T03:26:09;0.00;;;0.00;;
82182;SDS011;71763;52.220;13.000;2023-08-30T03:28:39;0.00;;;0.00;;
82182;SDS011;71763;52.220;13.000;2023-08-30T03:31:13;0.00;;;0.00;;
82182;SDS011;71763;52.220;13.000;2023-08-30T03:33:45;0.00;;;0.00;;
82182;SDS011;71763;52.220;13.000;2023-08-30T03:36:14;0.00;;;0.00;;
82182;SDS011;71763;52.220;13.000;2023-08-30T03:38:41;0.00;;;0.00;;
82182;SDS011;71763;52.220;13.000;2023-08-30T03:41:07;0.00;;;0.00;;
82182;SDS011;71763;52.220;13.000;2023-08-30T03:43:33;0.00;;;0.00;;
82182;SDS011;71763;52.220;13.000;2023-08-30T03:46:02;0.00;;;0.00;;
82182;SDS011;71763;52.220;13.000;2023-08-30T03:48:28;0.00;;;0.00;;
82182;SDS011;71763;52.220;13.000;2023-08-30T03:50:54;0.00;;;0.00;;
82182;SDS011;71763;52.220;13.000;2023-08-30T03:53:20;0.00;;;0.00;;
82182;SDS011;71763;52.220;13.000;2023-08-30T03:55:46;0.00;;;0.00;;
82182;SDS011;71763;52.220;13.000;2023-08-30T03:58:11;0.00;;;0.00;;
82182;SDS011;71763;52.220;13.000;2023-08-30T04:00:37;0.00;;;0.00;;
82182;SDS011;71763;52.220;13.000;2023-08-30T04:03:04;0.00;;;0.00;;
82182;SDS011;71763;52.220;13.000;2023-08-30T04:05:34;0.00;;;0.00;;
82182;SDS011;71763;52.220;13.000;2023-08-30T04:08:01;0.00;;;0.00;;
82182;SDS011;71763;52.220;13.000;2023-08-30T04:10:27;0.00;;;0.00;;
82182;SDS011;71763;52.220;13.000;2023-08-30T04:12:52;0.00;;;0.00;;
82182;SDS011;71763;52.220;13.000;2023-08-30T04:15:18;0.00;;;0.00;;
82182;SDS011;71763;52.220;13.000;2023-08-30T04:17:43;0.00;;;0.00;;
82182;SDS011;71763;52.220;13.000;2023-08-30T04:20:09;0.00;;;0.00;;
82182;SDS011;71763;52.220;13.000;2023-08-30T04:22:35;0.00;;;0.00;;
82182;SDS011;71763;52.220;13.000;2023-08-30T04:25:01;0.00;;;0.00;;
82182;SDS011;71763;52.220;13.000;2023-08-30T04:27:27;0.00;;;0.00;;
82182;SDS011;71763;52.220;13.000;2023-08-30T04:29:52;0.00;;;0.00;;
82182;SDS011;71763;52.220;13.000;2023-08-30T04:32:18;0.00;;;0.00;;
82182;SDS011;71763;52.220;13.000;2023-08-30T04:34:43;0.00;;;0.00;;
82182;SDS011;71763;52.220;13.000;2023-08-30T04:37:09;0.00;;;0.00;;
82182;SDS011;71763;52.220;13.000;2023-08-30T04:39:34;0.00;;;0.00;;
82182;SDS011;71763;52.220;13.000;2023-08-30T04:42:00;0.00;;;0.00;;
82182;SDS011;71763;52.220;13.000;2023-08-30T04:44:27;0.00;;;0.00;;
82182;SDS011;71763;52.220;13.000;2023-08-30T04:46:53;0.00;;;0.00;;
82182;SDS011;71763;52.220;13.000;2023-08-30T04:49:19;0.00;;;0.00;;
82182;SDS011;71763;52.220;13.000;2023-08-30T04:51:45;0.00;;;0.00;;
82182;SDS011;71763;52.220;13.000;2023-08-30T04:54:11;0.00;;;0.00;;
82182;SDS011;71763;52.220;13.000;2023-08-30T04:56:36;0.00;;;0.00;;
82182;SDS011;71763;52.220;13.000;2023-08-30T04:59:02;0.00;;;0.00;;
82182;SDS011;71763;52.220;13.000;2023-08-30T05:01:29;0.00;;;0.00;;
82182;SDS011;71763;52.220;13.000;2023-08-30T05:03:55;0.00;;;0.00;;
82182;SDS011;71763;52.220;13.000;2023-08-30T05:06:20;0.03;;;0.00;;
82182;SDS011;71763;52.220;13.000;2023-08-30T05:08:46;0.00;;;0.00;;
82182;SDS011;71763;52.220;13.000;2023-08-30T05:11:11;0.00;;;0.00;;
82182;SDS011;71763;52.220;13.000;2023-08-30T05:13:37;0.00;;;0.00;;
82182;SDS011;71763;52.220;13.000;2023-08-30T05:16:02;0.00;;;0.00;;
82182;SDS011;71763;52.220;13.000;2023-08-30T05:18:28;0.00;;;0.00;;
82182;SDS011;71763;52.220;13.000;2023-08-30T05:20:54;0.00;;;0.00;;
82182;SDS011;71763;52.220;13.000;2023-08-30T05:23:19;0.00;;;0.00;;
82182;SDS011;71763;52.220;13.000;2023-08-30T05:25:45;0.00;;;0.00;;
82182;SDS011;71763;52.220;13.000;2023-08-30T05:28:11;0.00;;;0.00;;
82182;SDS011;71763;52.220;13.000;2023-08-30T05:30:38;0.00;;;0.00;;
82182;SDS011;71763;52.220;13.000;2023-08-30T05:33:06;0.00;;;0.00;;
82182;SDS011;71763;52.220;13.000;2023-08-30T05:35:32;0.00;;;0.00;;
82182;SDS011;71763;52.220;13.000;2023-08-30T05:37:57;0.00;;;0.00;;
82182;SDS011;71763;52.220;13.000;2023-08-30T05:40:23;0.00;;;0.00;;
82182;SDS011;71763;52.220;13.000;2023-08-30T05:42:49;0.00;;;0.00;;
82182;SDS011;71763;52.220;13.000;2023-08-30T05:45:15;0.00;;;0.00;;
82182;SDS011;71763;52.220;13.000;2023-08-30T05:47:40;0.00;;;0.00;;
82182;SDS011;71763;52.220;13.000;2023-08-30T05:50:06;0.00;;;0.00;;
82182;SDS011;71763;52.220;13.000;2023-08-30T05:52:32;0.00;;;0.00;;
82182;SDS011;71763;52.220;13.000;2023-08-30T05:54:58;0.00;;;0.00;;
82182;SDS011;71763;52.220;13.000;2023-08-30T05:57:23;0.00;;;0.00;;
82182;SDS011;71763;52.220;13.000;2023-08-30T05:59:50;0.00;;;0.00;;
82182;SDS011;71763;52.220;13.000;2023-08-30T06:02:16;0.00;;;0.00;;
82182;SDS011;71763;52.220;13.000;2023-08-30T06:04:41;0.00;;;0.00;;
82182;SDS011;71763;52.220;13.000;2023-08-30T06:07:07;0.00;;;0.00;;
82182;SDS011;71763;52.220;13.000;2023-08-30T06:09:33;0.00;;;0.00;;
82182;SDS011;71763;52.220;13.000;2023-08-30T06:11:58;0.00;;;0.00;;
82182;SDS011;71763;52.220;13.000;2023-08-30T06:14:24;0.00;;;0.00;;
82182;SDS011;71763;52.220;13.000;2023-08-30T06:16:49;0.00;;;0.00;;
82182;SDS011;71763;52.220;13.000;2023-08-30T06:19:15;0.00;;;0.00;;
82182;SDS011;71763;52.220;13.000;2023-08-30T06:21:40;0.05;;;0.00;;
82182;SDS011;71763;52.220;13.000;2023-08-30T06:24:06;0.00;;;0.00;;
82182;SDS011;71763;52.220;13.000;2023-08-30T06:26:32;0.10;;;0.10;;
82182;SDS011;71763;52.220;13.000;2023-08-30T06:28:57;0.00;;;0.00;;
82182;SDS011;71763;52.220;13.000;2023-08-30T06:31:23;0.00;;;0.00;;
82182;SDS011;71763;52.220;13.000;2023-08-30T06:33:49;0.00;;;0.00;;
82182;SDS011;71763;52.220;13.000;2023-08-30T06:36:15;0.00;;;0.00;;
82182;SDS011;71763;52.220;13.000;2023-08-30T06:38:42;0.00;;;0.00;;
82182;SDS011;71763;52.220;13.000;2023-08-30T06:41:08;0.00;;;0.00;;
82182;SDS011;71763;52.220;13.000;2023-08-30T06:43:33;0.00;;;0.00;;
82182;SDS011;71763;52.220;13.000;2023-08-30T06:45:59;0.00;;;0.00;;
82182;SDS011;71763;52.220;13.000;2023-08-30T06:48:24;0.00;;;0.00;;
82182;SDS011;71763;52.220;13.000;2023-08-30T06:50:50;0.00;;;0.00;;
82182;SDS011;71763;52.220;13.000;2023-08-30T06:53:15;0.00;;;0.00;;
82182;SDS011;71763;52.220;13.000;2023-08-30T06:55:41;0.00;;;0.00;;
82182;SDS011;71763;52.220;13.000;2023-08-30T06:58:06;0.00;;;0.00;;
82182;SDS011;71763;52.220;13.000;2023-08-30T07:00:32;0.00;;;0.00;;
82182;SDS011;71763;52.220;13.000;2023-08-30T07:02:57;0.00;;;0.00;;
82182;SDS011;71763;52.220;13.000;2023-08-30T07:05:23;0.00;;;0.00;;
82182;SDS011;71763;52.220;13.000;2023-08-30T07:07:49;0.00;;;0.00;;
82182;SDS011;71763;52.220;13.000;2023-08-30T07:10:14;0.00;;;0.00;;
82182;SDS011;71763;52.220;13.000;2023-08-30T07:12:40;0.00;;;0.00;;
82182;SDS011;71763;52.220;13.000;2023-08-30T07:15:05;0.00;;;0.00;;
82182;SDS011;71763;52.220;13.000;2023-08-30T07:17:32;0.10;;;0.10;;
82182;SDS011;71763;52.220;13.000;2023-08-30T07:19:58;0.03;;;0.03;;
82182;SDS011;71763;52.220;13.000;2023-08-30T07:22:24;0.00;;;0.00;;
82182;SDS011;71763;52.220;13.000;2023-08-30T07:24:50;0.03;;;0.03;;
82182;SDS011;71763;52.220;13.000;2023-08-30T07:27:16;0.00;;;0.00;;
82182;SDS011;71763;52.220;13.000;2023-08-30T07:29:41;0.10;;;0.10;;
82182;SDS011;71763;52.220;13.000;2023-08-30T07:32:09;0.03;;;0.03;;
82182;SDS011;71763;52.220;13.000;2023-08-30T07:34:34;0.08;;;0.08;;
82182;SDS011;71763;52.220;13.000;2023-08-30T07:37:00;0.10;;;0.10;;
82182;SDS011;71763;52.220;13.000;2023-08-30T07:39:26;0.10;;;0.10;;
82182;SDS011;71763;52.220;13.000;2023-08-30T07:41:51;0.00;;;0.00;;
82182;SDS011;71763;52.220;13.000;2023-08-30T07:44:17;0.10;;;0.10;;
82182;SDS011;71763;52.220;13.000;2023-08-30T07:49:10;0.03;;;0.03;;
82182;SDS011;71763;52.220;13.000;2023-08-30T07:51:35;0.08;;;0.08;;
82182;SDS011;71763;52.220;13.000;2023-08-30T07:54:01;0.00;;;0.00;;
82182;SDS011;71763;52.220;13.000;2023-08-30T07:56:26;0.00;;;0.00;;
82182;SDS011;71763;52.220;13.000;2023-08-30T07:58:52;0.00;;;0.00;;
82182;SDS011;71763;52.220;13.000;2023-08-30T08:01:18;0.00;;;0.00;;
82182;SDS011;71763;52.220;13.000;2023-08-30T08:03:44;0.00;;;0.00;;
82182;SDS011;71763;52.220;13.000;2023-08-30T08:06:09;0.10;;;0.10;;
82182;SDS011;71763;52.220;13.000;2023-08-30T08:08:35;0.03;;;0.03;;
82182;SDS011;71763;52.220;13.000;2023-08-30T08:11:00;0.10;;;0.10;;
82182;SDS011;71763;52.220;13.000;2023-08-30T08:13:26;0.10;;;0.10;;
82182;SDS011;71763;52.220;13.000;2023-08-30T08:15:51;0.10;;;0.10;;
82182;SDS011;71763;52.220;13.000;2023-08-30T08:18:17;0.10;;;0.10;;
82182;SDS011;71763;52.220;13.000;2023-08-30T08:20:42;0.10;;;0.10;;
82182;SDS011;71763;52.220;13.000;2023-08-30T08:23:08;0.10;;;0.10;;
82182;SDS011;71763;52.220;13.000;2023-08-30T08:25:34;0.10;;;0.10;;
82182;SDS011;71763;52.220;13.000;2023-08-30T08:27:59;0.10;;;0.10;;
82182;SDS011;71763;52.220;13.000;2023-08-30T08:30:25;0.10;;;0.10;;
82182;SDS011;71763;52.220;13.000;2023-08-30T08:32:50;0.00;;;0.00;;
82182;SDS011;71763;52.220;13.000;2023-08-30T08:35:16;0.10;;;0.10;;
82182;SDS011;71763;52.220;13.000;2023-08-30T08:37:41;0.10;;;0.10;;
82182;SDS011;71763;52.220;13.000;2023-08-30T08:40:07;0.00;;;0.00;;
82182;SDS011;71763;52.220;13.000;2023-08-30T08:42:34;0.10;;;0.10;;
82182;SDS011;71763;52.220;13.000;2023-08-30T08:45:00;0.10;;;0.10;;
82182;SDS011;71763;52.220;13.000;2023-08-30T08:47:27;0.10;;;0.10;;
82182;SDS011;71763;52.220;13.000;2023-08-30T08:49:55;0.10;;;0.10;;
82182;SDS011;71763;52.220;13.000;2023-08-30T08:52:21;0.10;;;0.10;;
82182;SDS011;71763;52.220;13.000;2023-08-30T08:54:48;0.10;;;0.10;;
82182;SDS011;71763;52.220;13.000;2023-08-30T08:57:14;0.00;;;0.00;;
82182;SDS011;71763;52.220;13.000;2023-08-30T08:59:40;0.10;;;0.10;;
82182;SDS011;71763;52.220;13.000;2023-08-30T09:02:06;0.10;;;0.10;;
82182;SDS011;71763;52.220;13.000;2023-08-30T09:04:33;0.10;;;0.10;;
82182;SDS011;71763;52.220;13.000;2023-08-30T09:06:58;0.10;;;0.10;;
82182;SDS011;71763;52.220;13.000;2023-08-30T09:09:25;0.07;;;0.07;;
82182;SDS011;71763;52.220;13.000;2023-08-30T09:11:51;0.10;;;0.10;;
82182;SDS011;71763;52.220;13.000;2023-08-30T09:14:17;0.10;;;0.10;;
82182;SDS011;71763;52.220;13.000;2023-08-30T09:16:53;0.00;;;0.00;;
82182;SDS011;71763;52.220;13.000;2023-08-30T09:19:26;0.10;;;0.10;;
82182;SDS011;71763;52.220;13.000;2023-08-30T09:21:52;0.10;;;0.10;;
82182;SDS011;71763;52.220;13.000;2023-08-30T09:24:18;0.10;;;0.10;;
82182;SDS011;71763;52.220;13.000;2023-08-30T09:26:47;0.00;;;0.00;;
82182;SDS011;71763;52.220;13.000;2023-08-30T09:29:16;0.17;;;0.10;;
82182;SDS011;71763;52.220;13.000;2023-08-30T09:31:42;0.10;;;0.10;;
82182;SDS011;71763;52.220;13.000;2023-08-30T09:34:08;0.10;;;0.10;;
82182;SDS011;71763;52.220;13.000;2023-08-30T09:36:36;0.10;;;0.10;;
82182;SDS011;71763;52.220;13.000;2023-08-30T09:39:13;0.10;;;0.10;;
82182;SDS011;71763;52.220;13.000;2023-08-30T09:41:43;0.10;;;0.10;;
82182;SDS011;71763;52.220;13.000;2023-08-30T09:44:10;0.10;;;0.10;;
82182;SDS011;71763;52.220;13.000;2023-08-30T09:46:48;0.10;;;0.10;;
82182;SDS011;71763;52.220;13.000;2023-08-30T09:49:17;0.10;;;0.10;;
82182;SDS011;71763;52.220;13.000;2023-08-30T09:51:44;0.10;;;0.10;;
82182;SDS011;71763;52.220;13.000;2023-08-30T09:54:13;0.13;;;0.13;;
82182;SDS011;71763;52.220;13.000;2023-08-30T09:56:43;0.10;;;0.10;;
82182;SDS011;71763;52.220;13.000;2023-08-30T09:59:10;0.10;;;0.10;;
82182;SDS011;71763;52.220;13.000;2023-08-30T10:01:41;0.10;;;0.10;;
82182;SDS011;71763;52.220;13.000;2023-08-30T10:04:07;0.10;;;0.10;;
82182;SDS011;71763;52.220;13.000;2023-08-30T10:06:39;0.10;;;0.10;;
82182;SDS011;71763;52.220;13.000;2023-08-30T10:09:05;0.10;;;0.10;;
82182;SDS011;71763;52.220;13.000;2023-08-30T10:11:33;0.10;;;0.10;;
82182;SDS011;71763;52.220;13.000;2023-08-30T10:14:02;0.13;;;0.13;;
82182;SDS011;71763;52.220;13.000;2023-08-30T10:16:30;0.10;;;0.10;;
82182;SDS011;71763;52.220;13.000;2023-08-30T10:19:03;0.20;;;0.20;;
82182;SDS011;71763;52.220;13.000;2023-08-30T10:21:35;0.10;;;0.10;;
82182;SDS011;71763;52.220;13.000;2023-08-30T10:26:30;0.20;;;0.20;;
82182;SDS011;71763;52.220;13.000;2023-08-30T10:31:23;0.17;;;0.17;;
82182;SDS011;71763;52.220;13.000;2023-08-30T10:33:49;0.10;;;0.10;;
82182;SDS011;71763;52.220;13.000;2023-08-30T10:36:24;0.20;;;0.20;;
82182;SDS011;71763;52.220;13.000;2023-08-30T10:38:52;0.10;;;0.10;;
82182;SDS011;71763;52.220;13.000;2023-08-30T10:41:23;0.20;;;0.20;;
82182;SDS011;71763;52.220;13.000;2023-08-30T10:43:50;0.20;;;0.20;;
82182;SDS011;71763;52.220;13.000;2023-08-30T10:46:31;0.10;;;0.10;;
82182;SDS011;71763;52.220;13.000;2023-08-30T10:49:13;0.10;;;0.10;;
82182;SDS011;71763;52.220;13.000;2023-08-30T10:51:42;0.10;;;0.10;;
82182;SDS011;71763;52.220;13.000;2023-08-30T10:54:13;0.10;;;0.10;;
82182;SDS011;71763;52.220;13.000;2023-08-30T10:56:56;0.10;;;0.10;;
82182;SDS011;71763;52.220;13.000;2023-08-30T10:59:24;0.20;;;0.20;;
82182;SDS011;71763;52.220;13.000;2023-08-30T11:01:51;0.20;;;0.20;;
82182;SDS011;71763;52.220;13.000;2023-08-30T11:04:17;0.20;;;0.20;;
82182;SDS011;71763;52.220;13.000;2023-08-30T11:06:44;0.20;;;0.20;;
82182;SDS011;71763;52.220;13.000;2023-08-30T11:09:13;0.20;;;0.20;;
82182;SDS011;71763;52.220;13.000;2023-08-30T11:11:42;0.10;;;0.10;;
82182;SDS011;71763;52.220;13.000;2023-08-30T11:14:08;0.20;;;0.20;;
82182;SDS011;71763;52.220;13.000;2023-08-30T11:16:35;0.10;;;0.10;;
82182;SDS011;71763;52.220;13.000;2023-08-30T11:19:01;0.10;;;0.10;;
82182;SDS011;71763;52.220;13.000;2023-08-30T11:21:29;0.10;;;0.10;;
82182;SDS011;71763;52.220;13.000;2023-08-30T11:23:56;0.10;;;0.10;;
82182;SDS011;71763;52.220;13.000;2023-08-30T11:26:21;0.10;;;0.10;;
82182;SDS011;71763;52.220;13.000;2023-08-30T11:28:47;0.10;;;0.10;;
82182;SDS011;71763;52.220;13.000;2023-08-30T11:31:24;0.10;;;0.10;;
82182;SDS011;71763;52.220;13.000;2023-08-30T11:33:56;0.20;;;0.20;;
82182;SDS011;71763;52.220;13.000;2023-08-30T11:36:24;0.10;;;0.10;;
82182;SDS011;71763;52.220;13.000;2023-08-30T11:38:55;0.10;;;0.10;;
82182;SDS011;71763;52.220;13.000;2023-08-30T11:41:21;0.20;;;0.20;;
82182;SDS011;71763;52.220;13.000;2023-08-30T11:43:47;0.10;;;0.10;;
82182;SDS011;71763;52.220;13.000;2023-08-30T11:46:13;0.10;;;0.10;;
82182;SDS011;71763;52.220;13.000;2023-08-30T11:48:42;0.10;;;0.10;;
82182;SDS011;71763;52.220;13.000;2023-08-30T11:51:08;0.20;;;0.20;;
82182;SDS011;71763;52.220;13.000;2023-08-30T11:53:34;0.10;;;0.10;;
82182;SDS011;71763;52.220;13.000;2023-08-30T11:56:00;0.10;;;0.10;;
82182;SDS011;71763;52.220;13.000;2023-08-30T11:58:27;0.10;;;0.10;;
82182;SDS011;71763;52.220;13.000;2023-08-30T12:00:53;0.32;;;0.10;;
82182;SDS011;71763;52.220;13.000;2023-08-30T12:03:22;0.15;;;0.15;;
82182;SDS011;71763;52.220;13.000;2023-08-30T12:05:48;0.10;;;0.10;;
82182;SDS011;71763;52.220;13.000;2023-08-30T12:08:18;0.20;;;0.20;;
82182;SDS011;71763;52.220;13.000;2023-08-30T12:11:04;0.20;;;0.20;;
82182;SDS011;71763;52.220;13.000;2023-08-30T12:13:30;0.20;;;0.20;;
82182;SDS011;71763;52.220;13.000;2023-08-30T12:15:58;0.20;;;0.20;;
82182;SDS011;71763;52.220;13.000;2023-08-30T12:23:23;0.20;;;0.20;;
82182;SDS011;71763;52.220;13.000;2023-08-30T12:28:22;0.20;;;0.20;;
82182;SDS011;71763;52.220;13.000;2023-08-30T12:30:48;0.22;;;0.22;;
82182;SDS011;71763;52.220;13.000;2023-08-30T12:33:16;0.20;;;0.20;;
82182;SDS011;71763;52.220;13.000;2023-08-30T12:35:41;0.13;;;0.13;;
82182;SDS011;71763;52.220;13.000;2023-08-30T12:38:07;0.30;;;0.30;;
82182;SDS011;71763;52.220;13.000;2023-08-30T12:40:34;0.28;;;0.28;;
82182;SDS011;71763;52.220;13.000;2023-08-30T12:43:00;0.20;;;0.20;;
82182;SDS011;71763;52.220;13.000;2023-08-30T12:45:26;0.20;;;0.20;;
82182;SDS011;71763;52.220;13.000;2023-08-30T12:47:51;0.23;;;0.23;;
82182;SDS011;71763;52.220;13.000;2023-08-30T12:50:17;0.25;;;0.25;;
82182;SDS011;71763;52.220;13.000;2023-08-30T12:52:42;0.20;;;0.20;;
82182;SDS011;71763;52.220;13.000;2023-08-30T12:55:08;0.22;;;0.22;;
82182;SDS011;71763;52.220;13.000;2023-08-30T12:57:33;0.20;;;0.20;;
82182;SDS011;71763;52.220;13.000;2023-08-30T12:59:59;0.20;;;0.20;;
82182;SDS011;71763;52.220;13.000;2023-08-30T13:02:24;0.27;;;0.27;;
82182;SDS011;71763;52.220;13.000;2023-08-30T13:04:50;0.25;;;0.25;;
82182;SDS011;71763;52.220;13.000;2023-08-30T13:07:15;0.22;;;0.22;;
82182;SDS011;71763;52.220;13.000;2023-08-30T13:09:41;0.20;;;0.20;;
82182;SDS011;71763;52.220;13.000;2023-08-30T13:12:06;0.15;;;0.15;;
82182;SDS011;71763;52.220;13.000;2023-08-30T13:14:32;0.20;;;0.20;;
82182;SDS011;71763;52.220;13.000;2023-08-30T13:16:58;0.20;;;0.20;;
82182;SDS011;71763;52.220;13.000;2023-08-30T13:19:23;0.20;;;0.20;;
82182;SDS011;71763;52.220;13.000;2023-08-30T13:21:48;0.20;;;0.20;;
82182;SDS011;71763;52.220;13.000;2023-08-30T13:24:14;0.10;;;0.10;;
82182;SDS011;71763;52.220;13.000;2023-08-30T13:26:41;0.15;;;0.15;;
82182;SDS011;71763;52.220;13.000;2023-08-30T13:29:07;0.13;;;0.13;;
82182;SDS011;71763;52.220;13.000;2023-08-30T13:31:32;0.20;;;0.20;;
82182;SDS011;71763;52.220;13.000;2023-08-30T13:33:58;0.20;;;0.20;;
82182;SDS011;71763;52.220;13.000;2023-08-30T13:36:24;0.10;;;0.10;;
82182;SDS011;71763;52.220;13.000;2023-08-30T13:38:49;0.15;;;0.15;;
82182;SDS011;71763;52.220;13.000;2023-08-30T13:41:15;0.10;;;0.10;;
82182;SDS011;71763;52.220;13.000;2023-08-30T13:43:40;0.10;;;0.10;;
82182;SDS011;71763;52.220;13.000;2023-08-30T13:46:06;0.10;;;0.10;;
82182;SDS011;71763;52.220;13.000;2023-08-30T13:48:31;0.10;;;0.10;;
82182;SDS011;71763;52.220;13.000;2023-08-30T13:50:57;0.10;;;0.10;;
82182;SDS011;71763;52.220;13.000;2023-08-30T13:53:22;0.17;;;0.17;;
82182;SDS011;71763;52.220;13.000;2023-08-30T13:55:49;0.20;;;0.20;;
82182;SDS011;71763;52.220;13.000;2023-08-30T13:58:15;0.20;;;0.20;;
82182;SDS011;71763;52.220;13.000;2023-08-30T14:00:40;0.10;;;0.10;;
82182;SDS011;71763;52.220;13.000;2023-08-30T14:03:06;0.10;;;0.10;;
82182;SDS011;71763;52.220;13.000;2023-08-30T14:05:33;0.10;;;0.10;;
82182;SDS011;71763;52.220;13.000;2023-08-30T14:07:58;0.17;;;0.17;;
82182;SDS011;71763;52.220;13.000;2023-08-30T14:10:24;0.10;;;0.10;;
82182;SDS011;71763;52.220;13.000;2023-08-30T14:12:49;0.10;;;0.10;;
82182;SDS011;71763;52.220;13.000;2023-08-30T14:15:15;0.10;;;0.10;;
82182;SDS011;71763;52.220;13.000;2023-08-30T14:17:41;0.10;;;0.10;;
82182;SDS011;71763;52.220;13.000;2023-08-30T14:20:06;0.20;;;0.20;;
82182;SDS011;71763;52.220;13.000;2023-08-30T14:22:32;0.10;;;0.10;;
82182;SDS011;71763;52.220;13.000;2023-08-30T14:24:58;0.20;;;0.20;;
82182;SDS011;71763;52.220;13.000;2023-08-30T14:27:23;0.10;;;0.10;;
82182;SDS011;71763;52.220;13.000;2023-08-30T14:29:49;0.15;;;0.15;;
82182;SDS011;71763;52.220;13.000;2023-08-30T14:32:14;0.20;;;0.20;;
82182;SDS011;71763;52.220;13.000;2023-08-30T14:34:40;0.10;;;0.10;;
82182;SDS011;71763;52.220;13.000;2023-08-30T14:37:05;0.17;;;0.17;;
82182;SDS011;71763;52.220;13.000;2023-08-30T14:39:31;0.17;;;0.17;;
82182;SDS011;71763;52.220;13.000;2023-08-30T14:41:56;0.13;;;0.13;;
82182;SDS011;71763;52.220;13.000;2023-08-30T14:44:22;0.20;;;0.20;;
82182;SDS011;71763;52.220;13.000;2023-08-30T14:46:50;0.10;;;0.10;;
82182;SDS011;71763;52.220;13.000;2023-08-30T14:49:16;0.20;;;0.20;;